CMA CGM Loire — 9HA3739 — position and weather

sailwx.info

Track history (hours):
 
Tides and Currents Weather Stations Pressure Air Temp Water Temp Dewpoint Dewpoint Depression Visibility Wind Speed Wind Dir Waves Ship Positions

CMA CGM Loire

Last reported at 2017-Nov-20 00:30 UTC. Time now 2017-Dec-13 01:51 UTC.
Position N 35°53' W 122°04'.
Warning: this ship's position is 23 days out of date.

Length 300 m; draft 13 m.

Type: Ship (hazmat cat A). MMSI: 229947000.

Date/timePositionNaut miles runAvg speedWind from/ knotsBaromVisibWave heightAir tempDewpointWater temp
2017-Nov-20 00:30N 35°53' W 122°04'510.3
2017-Nov-20 00:00N 35°49' W 122°00'510.4
2017-Nov-19 23:30N 35°44' W 121°57'510.4
2017-Nov-19 23:00N 35°40' W 121°53'510.5
2017-Nov-19 22:30N 35°36' W 121°50'510.4
2017-Nov-19 22:00N 35°31' W 121°46'510.5
2017-Nov-19 21:30N 35°27' W 121°42'510.2
2017-Nov-19 21:00N 35°23' W 121°39'510.4
2017-Nov-19 20:30N 35°19' W 121°35'510.5
2017-Nov-19 20:00N 35°14' W 121°32'510.7
2017-Nov-19 19:30N 35°10' W 121°28'510.9
2017-Nov-19 19:00N 35°05' W 121°24'510.4
2017-Nov-19 18:30N 35°01' W 121°21'510.6
2017-Nov-19 18:00N 34°57' W 121°17'510.3
2017-Nov-19 17:30N 34°52' W 121°13'510.4
2017-Nov-19 17:00N 34°48' W 121°10'510.5
2017-Nov-19 16:30N 34°44' W 121°06'510.4
2017-Nov-19 16:00N 34°39' W 121°03'510.4
2017-Nov-19 15:30N 34°35' W 120°59'510.2
2017-Nov-19 15:00N 34°31' W 120°56'510.0
2017-Nov-19 14:30N 34°27' W 120°52'510.3
2017-Nov-19 13:58N 34°25' W 120°46'510.4
2017-Nov-19 13:30N 34°24' W 120°40'510.2
2017-Nov-19 13:00N 34°22' W 120°34'510.0
2017-Nov-19 12:30N 34°21' W 120°28'510.2
2017-Nov-19 12:00N 34°20' W 120°22'610.7
2017-Nov-19 11:29N 34°18' W 120°16'510.5
2017-Nov-19 11:00N 34°17' W 120°10'510.5
2017-Nov-19 10:29N 34°15' W 120°04'510.5
2017-Nov-19 09:59N 34°14' W 119°57'510.3
2017-Nov-19 09:28N 34°13' W 119°51'510.1
2017-Nov-19 09:00N 34°11' W 119°46'510.1
2017-Nov-19 08:30N 34°10' W 119°40'510.5
2017-Nov-19 07:59N 34°09' W 119°34'510.5
2017-Nov-19 07:30N 34°07' W 119°28'510.5
2017-Nov-19 07:00N 34°06' W 119°22'510.5
2017-Nov-19 06:30N 34°04' W 119°16'510.4
2017-Nov-19 05:59N 34°02' W 119°10'510.5
2017-Nov-19 05:29N 33°59' W 119°04'510.2
2017-Nov-19 05:00N 33°57' W 118°59'510.6
2017-Nov-19 04:30N 33°54' W 118°54'610.9
2017-Nov-19 04:00N 33°51' W 118°48'510.9
2017-Nov-19 03:30N 33°49' W 118°42'510.6
2017-Nov-19 03:00N 33°46' W 118°37'510.8
2017-Nov-19 02:30N 33°44' W 118°31'610.7
2017-Nov-19 01:58N 33°41' W 118°25'5 9.9
2017-Nov-19 01:30N 33°38' W 118°20'4 9.0
2017-Nov-19 01:01N 33°40' W 118°15'4 7.0
2017-Nov-19 00:30N 33°44' W 118°16'1 1.1
2017-Nov-18 23:58N 33°44' W 118°15'0 0.0
2017-Nov-18 23:22N 33°44' W 118°15'0 0.0
2017-Nov-18 22:58N 33°44' W 118°15'0 0.0
2017-Nov-18 22:28N 33°44' W 118°15'0 0.0
2017-Nov-18 21:58N 33°44' W 118°15'0 0.0
2017-Nov-18 21:22N 33°44' W 118°15'0 0.0
2017-Nov-18 20:58N 33°44' W 118°15'0 0.0
2017-Nov-18 20:28N 33°44' W 118°15'0 0.0
2017-Nov-18 19:52N 33°44' W 118°15'0 0.0
2017-Nov-18 19:28N 33°44' W 118°15'0 0.0
2017-Nov-17 23:53N 33°44' W 118°15'0 0.0
2017-Nov-17 23:29N 33°44' W 118°15'0 0.0
2017-Nov-17 22:47N 33°44' W 118°15'0 0.0
2017-Nov-17 21:05N 33°44' W 118°15'0 0.0
2017-Nov-17 20:59N 33°44' W 118°15'0 0.0
2017-Nov-17 17:41N 33°44' W 118°15'0 0.0
2017-Nov-17 17:29N 33°44' W 118°15'0 0.0
2017-Nov-17 13:47N 33°44' W 118°15'0 0.0
2017-Nov-17 13:23N 33°44' W 118°15'0 0.0
2017-Nov-17 12:53N 33°44' W 118°15'0 0.0
2017-Nov-17 12:17N 33°44' W 118°15'0 0.0
2017-Nov-17 11:53N 33°44' W 118°15'0 0.0
2017-Nov-17 11:29N 33°44' W 118°15'0 0.0
2017-Nov-17 10:59N 33°44' W 118°15'0 0.0
2017-Nov-17 10:29N 33°44' W 118°15'0 0.0
2017-Nov-17 09:59N 33°44' W 118°15'0 0.0
2017-Nov-17 09:05N 33°44' W 118°15'0 0.0
2017-Nov-17 08:59N 33°44' W 118°15'0 0.0
2017-Nov-17 08:29N 33°44' W 118°15'0 0.0
2017-Nov-17 07:47N 33°44' W 118°15'0 0.0
2017-Nov-17 07:29N 33°44' W 118°15'0 0.0
2017-Nov-17 06:47N 33°44' W 118°15'0 0.0
2017-Nov-17 06:29N 33°44' W 118°15'0 0.0
2017-Nov-17 03:11N 33°44' W 118°15'0 0.0
2017-Nov-17 02:47N 33°44' W 118°15'0 0.0
2017-Nov-17 02:23N 33°44' W 118°15'0 0.0
2017-Nov-17 01:47N 33°44' W 118°15'0 0.0
2017-Nov-16 20:29N 33°44' W 118°15'0 0.0
2017-Nov-16 19:59N 33°44' W 118°15'0 0.0
2017-Nov-16 19:29N 33°44' W 118°15'0 0.0
2017-Nov-16 18:53N 33°44' W 118°15'0 0.0
2017-Nov-16 18:29N 33°44' W 118°15'0 0.0
2017-Nov-16 17:23N 33°44' W 118°15'0 0.0
2017-Nov-16 15:35N 33°44' W 118°15'0 0.0
2017-Nov-16 15:29N 33°44' W 118°15'0 0.0
2017-Nov-16 14:59N 33°44' W 118°15'0 0.0
2017-Nov-16 14:29N 33°44' W 118°15'0 0.0
2017-Nov-16 13:59N 33°44' W 118°15'0 0.0
2017-Nov-16 13:23N 33°44' W 118°15'0 0.0
2017-Nov-16 12:59N 33°44' W 118°15'0 0.0
2017-Nov-16 12:23N 33°44' W 118°15'0 0.0
2017-Nov-16 11:59N 33°44' W 118°15'0 0.0
2017-Nov-16 11:26N 33°44' W 118°15'0 0.0
2017-Nov-16 10:53N 33°44' W 118°15'0 0.0
2017-Nov-16 10:28N 33°44' W 118°15'0 0.1
2017-Nov-16 09:58N 33°44' W 118°15'0 0.0
2017-Nov-16 06:58N 33°44' W 118°15'0 0.0
2017-Nov-16 06:10N 33°44' W 118°15'0 0.0
2017-Nov-16 05:58N 33°44' W 118°15'0 0.0
2017-Nov-16 04:46N 33°44' W 118°15'0 0.0
2017-Nov-16 04:28N 33°44' W 118°15'0 0.0
2017-Nov-16 03:58N 33°44' W 118°15'0 0.0
2017-Nov-16 03:25N 33°44' W 118°15'0 0.0
2017-Nov-16 02:34N 33°44' W 118°15'0 0.0
2017-Nov-16 00:58N 33°44' W 118°15'0 0.0
2017-Nov-16 00:28N 33°44' W 118°15'0 0.0
2017-Nov-15 23:52N 33°44' W 118°15'0 0.0
2017-Nov-15 23:22N 33°44' W 118°15'0 0.0
2017-Nov-15 22:59N 33°44' W 118°15'1 1.3
2017-Nov-15 22:30N 33°44' W 118°16'3 6.1
2017-Nov-15 22:00N 33°41' W 118°14'4 8.3
2017-Nov-15 21:30N 33°37' W 118°16'5 9.8
2017-Nov-15 21:00N 33°37' W 118°22'611.4
2017-Nov-15 20:30N 33°39' W 118°28'611.9
2017-Nov-15 20:00N 33°42' W 118°34'611.9
2017-Nov-15 19:30N 33°45' W 118°40'611.8
2017-Nov-15 19:00N 33°48' W 118°46'611.8
2017-Nov-15 18:30N 33°51' W 118°53'611.8
2017-Nov-15 18:00N 33°54' W 118°59'611.8
2017-Nov-15 17:30N 33°57' W 119°05'611.9
2017-Nov-15 17:00N 33°60' W 119°11'611.9
2017-Nov-15 16:30N 34°03' W 119°18'611.7
2017-Nov-15 15:59N 34°04' W 119°25'611.9
2017-Nov-15 15:30N 34°06' W 119°31'611.7
2017-Nov-15 15:00N 34°07' W 119°38'611.3
2017-Nov-15 14:30N 34°09' W 119°45'611.9
2017-Nov-15 13:59N 34°11' W 119°52'612.0
2017-Nov-15 13:30N 34°12' W 119°59'612.1
2017-Nov-15 13:00N 34°14' W 120°06'711.8
2017-Nov-15 12:26N 34°15' W 120°13'512.1
2017-Nov-15 12:00N 34°17' W 120°20'612.6
2017-Nov-15 11:30N 34°19' W 120°27'917.7
2017-Nov-15 11:00N 34°20' W 120°37'918.0
2017-Nov-15 10:30N 34°21' W 120°48'917.7
2017-Nov-15 10:00N 34°19' W 120°58'714.3
2017-Nov-15 09:30N 34°18' W 121°07'5 9.9
2017-Nov-15 09:00N 34°20' W 121°13'510.1
2017-Nov-15 08:28N 34°22' W 121°18'612.3
2017-Nov-15 08:00N 34°26' W 121°24'919.0
2017-Nov-15 07:30N 34°35' W 121°26'714.7
2017-Nov-15 07:00N 34°39' W 121°34'916.2
2017-Nov-15 06:28N 34°43' W 121°43'716.2
2017-Nov-15 06:00N 34°46' W 121°52'815.7
2017-Nov-15 05:30N 34°49' W 122°00'815.8
2017-Nov-15 05:00N 34°52' W 122°09'917.8
2017-Nov-15 04:30N 34°56' W 122°19'1120.2
2017-Nov-15 03:59N 35°00' W 122°31'4220.1
2017-Nov-15 01:53N 35°17' W 123°18'  
Track history (hours):
 
Tides and Currents Weather Stations Pressure Air Temp Water Temp Dewpoint Dewpoint Depression Visibility Wind Speed Wind Dir Waves Ship Positions

CMA CGM Loire

Last reported at 2017-Nov-20 00:30 UTC. Time now 2017-Dec-13 01:51 UTC.
Position N 35°53' W 122°04'.
Warning: this ship's position is 23 days out of date.

Length 300 m; draft 13 m.

Type: Ship (hazmat cat A). MMSI: 229947000.

Date/timePositionNaut miles runAvg speedWind from/ knotsBaromVisibWave heightAir tempDewpointWater temp
2017-Nov-20 00:30N 35°53' W 122°04'510.3
2017-Nov-20 00:00N 35°49' W 122°00'510.4
2017-Nov-19 23:30N 35°44' W 121°57'510.4
2017-Nov-19 23:00N 35°40' W 121°53'510.5
2017-Nov-19 22:30N 35°36' W 121°50'510.4
2017-Nov-19 22:00N 35°31' W 121°46'510.5
2017-Nov-19 21:30N 35°27' W 121°42'510.2
2017-Nov-19 21:00N 35°23' W 121°39'510.4
2017-Nov-19 20:30N 35°19' W 121°35'510.5
2017-Nov-19 20:00N 35°14' W 121°32'510.7
2017-Nov-19 19:30N 35°10' W 121°28'510.9
2017-Nov-19 19:00N 35°05' W 121°24'510.4
2017-Nov-19 18:30N 35°01' W 121°21'510.6
2017-Nov-19 18:00N 34°57' W 121°17'510.3
2017-Nov-19 17:30N 34°52' W 121°13'510.4
2017-Nov-19 17:00N 34°48' W 121°10'510.5
2017-Nov-19 16:30N 34°44' W 121°06'510.4
2017-Nov-19 16:00N 34°39' W 121°03'510.4
2017-Nov-19 15:30N 34°35' W 120°59'510.2
2017-Nov-19 15:00N 34°31' W 120°56'510.0
2017-Nov-19 14:30N 34°27' W 120°52'510.3
2017-Nov-19 13:58N 34°25' W 120°46'510.4
2017-Nov-19 13:30N 34°24' W 120°40'510.2
2017-Nov-19 13:00N 34°22' W 120°34'510.0
2017-Nov-19 12:30N 34°21' W 120°28'510.2
2017-Nov-19 12:00N 34°20' W 120°22'610.7
2017-Nov-19 11:29N 34°18' W 120°16'510.5
2017-Nov-19 11:00N 34°17' W 120°10'510.5
2017-Nov-19 10:29N 34°15' W 120°04'510.5
2017-Nov-19 09:59N 34°14' W 119°57'510.3
2017-Nov-19 09:28N 34°13' W 119°51'510.1
2017-Nov-19 09:00N 34°11' W 119°46'510.1
2017-Nov-19 08:30N 34°10' W 119°40'510.5
2017-Nov-19 07:59N 34°09' W 119°34'510.5
2017-Nov-19 07:30N 34°07' W 119°28'510.5
2017-Nov-19 07:00N 34°06' W 119°22'510.5
2017-Nov-19 06:30N 34°04' W 119°16'510.4
2017-Nov-19 05:59N 34°02' W 119°10'510.5
2017-Nov-19 05:29N 33°59' W 119°04'510.2
2017-Nov-19 05:00N 33°57' W 118°59'510.6
2017-Nov-19 04:30N 33°54' W 118°54'610.9
2017-Nov-19 04:00N 33°51' W 118°48'510.9
2017-Nov-19 03:30N 33°49' W 118°42'510.6
2017-Nov-19 03:00N 33°46' W 118°37'510.8
2017-Nov-19 02:30N 33°44' W 118°31'610.7
2017-Nov-19 01:58N 33°41' W 118°25'5 9.9
2017-Nov-19 01:30N 33°38' W 118°20'4 9.0
2017-Nov-19 01:01N 33°40' W 118°15'4 7.0
2017-Nov-19 00:30N 33°44' W 118°16'1 1.1
2017-Nov-18 23:58N 33°44' W 118°15'0 0.0
2017-Nov-18 23:22N 33°44' W 118°15'0 0.0
2017-Nov-18 22:58N 33°44' W 118°15'0 0.0
2017-Nov-18 22:28N 33°44' W 118°15'0 0.0
2017-Nov-18 21:58N 33°44' W 118°15'0 0.0
2017-Nov-18 21:22N 33°44' W 118°15'0 0.0
2017-Nov-18 20:58N 33°44' W 118°15'0 0.0
2017-Nov-18 20:28N 33°44' W 118°15'0 0.0
2017-Nov-18 19:52N 33°44' W 118°15'0 0.0
2017-Nov-18 19:28N 33°44' W 118°15'0 0.0
2017-Nov-17 23:53N 33°44' W 118°15'0 0.0
2017-Nov-17 23:29N 33°44' W 118°15'0 0.0
2017-Nov-17 22:47N 33°44' W 118°15'0 0.0
2017-Nov-17 21:05N 33°44' W 118°15'0 0.0
2017-Nov-17 20:59N 33°44' W 118°15'0 0.0
2017-Nov-17 17:41N 33°44' W 118°15'0 0.0
2017-Nov-17 17:29N 33°44' W 118°15'0 0.0
2017-Nov-17 13:47N 33°44' W 118°15'0 0.0
2017-Nov-17 13:23N 33°44' W 118°15'0 0.0
2017-Nov-17 12:53N 33°44' W 118°15'0 0.0
2017-Nov-17 12:17N 33°44' W 118°15'0 0.0
2017-Nov-17 11:53N 33°44' W 118°15'0 0.0
2017-Nov-17 11:29N 33°44' W 118°15'0 0.0
2017-Nov-17 10:59N 33°44' W 118°15'0 0.0
2017-Nov-17 10:29N 33°44' W 118°15'0 0.0
2017-Nov-17 09:59N 33°44' W 118°15'0 0.0
2017-Nov-17 09:05N 33°44' W 118°15'0 0.0
2017-Nov-17 08:59N 33°44' W 118°15'0 0.0
2017-Nov-17 08:29N 33°44' W 118°15'0 0.0
2017-Nov-17 07:47N 33°44' W 118°15'0 0.0
2017-Nov-17 07:29N 33°44' W 118°15'0 0.0
2017-Nov-17 06:47N 33°44' W 118°15'0 0.0
2017-Nov-17 06:29N 33°44' W 118°15'0 0.0
2017-Nov-17 03:11N 33°44' W 118°15'0 0.0
2017-Nov-17 02:47N 33°44' W 118°15'0 0.0
2017-Nov-17 02:23N 33°44' W 118°15'0 0.0
2017-Nov-17 01:47N 33°44' W 118°15'0 0.0
2017-Nov-16 20:29N 33°44' W 118°15'0 0.0
2017-Nov-16 19:59N 33°44' W 118°15'0 0.0
2017-Nov-16 19:29N 33°44' W 118°15'0 0.0
2017-Nov-16 18:53N 33°44' W 118°15'0 0.0
2017-Nov-16 18:29N 33°44' W 118°15'0 0.0
2017-Nov-16 17:23N 33°44' W 118°15'0 0.0
2017-Nov-16 15:35N 33°44' W 118°15'0 0.0
2017-Nov-16 15:29N 33°44' W 118°15'0 0.0
2017-Nov-16 14:59N 33°44' W 118°15'0 0.0
2017-Nov-16 14:29N 33°44' W 118°15'0 0.0
2017-Nov-16 13:59N 33°44' W 118°15'0 0.0
2017-Nov-16 13:23N 33°44' W 118°15'0 0.0
2017-Nov-16 12:59N 33°44' W 118°15'0 0.0
2017-Nov-16 12:23N 33°44' W 118°15'0 0.0
2017-Nov-16 11:59N 33°44' W 118°15'0 0.0
2017-Nov-16 11:26N 33°44' W 118°15'0 0.0
2017-Nov-16 10:53N 33°44' W 118°15'0 0.0
2017-Nov-16 10:28N 33°44' W 118°15'0 0.1
2017-Nov-16 09:58N 33°44' W 118°15'0 0.0
2017-Nov-16 06:58N 33°44' W 118°15'0 0.0
2017-Nov-16 06:10N 33°44' W 118°15'0 0.0
2017-Nov-16 05:58N 33°44' W 118°15'0 0.0
2017-Nov-16 04:46N 33°44' W 118°15'0 0.0
2017-Nov-16 04:28N 33°44' W 118°15'0 0.0
2017-Nov-16 03:58N 33°44' W 118°15'0 0.0
2017-Nov-16 03:25N 33°44' W 118°15'0 0.0
2017-Nov-16 02:34N 33°44' W 118°15'0 0.0
2017-Nov-16 00:58N 33°44' W 118°15'0 0.0
2017-Nov-16 00:28N 33°44' W 118°15'0 0.0
2017-Nov-15 23:52N 33°44' W 118°15'0 0.0
2017-Nov-15 23:22N 33°44' W 118°15'0 0.0
2017-Nov-15 22:59N 33°44' W 118°15'1 1.3
2017-Nov-15 22:30N 33°44' W 118°16'3 6.1
2017-Nov-15 22:00N 33°41' W 118°14'4 8.3
2017-Nov-15 21:30N 33°37' W 118°16'5 9.8
2017-Nov-15 21:00N 33°37' W 118°22'611.4
2017-Nov-15 20:30N 33°39' W 118°28'611.9
2017-Nov-15 20:00N 33°42' W 118°34'611.9
2017-Nov-15 19:30N 33°45' W 118°40'611.8
2017-Nov-15 19:00N 33°48' W 118°46'611.8
2017-Nov-15 18:30N 33°51' W 118°53'611.8
2017-Nov-15 18:00N 33°54' W 118°59'611.8
2017-Nov-15 17:30N 33°57' W 119°05'611.9
2017-Nov-15 17:00N 33°60' W 119°11'611.9
2017-Nov-15 16:30N 34°03' W 119°18'611.7
2017-Nov-15 15:59N 34°04' W 119°25'611.9
2017-Nov-15 15:30N 34°06' W 119°31'611.7
2017-Nov-15 15:00N 34°07' W 119°38'611.3
2017-Nov-15 14:30N 34°09' W 119°45'611.9
2017-Nov-15 13:59N 34°11' W 119°52'612.0
2017-Nov-15 13:30N 34°12' W 119°59'612.1
2017-Nov-15 13:00N 34°14' W 120°06'711.8
2017-Nov-15 12:26N 34°15' W 120°13'512.1
2017-Nov-15 12:00N 34°17' W 120°20'612.6
2017-Nov-15 11:30N 34°19' W 120°27'917.7
2017-Nov-15 11:00N 34°20' W 120°37'918.0
2017-Nov-15 10:30N 34°21' W 120°48'917.7
2017-Nov-15 10:00N 34°19' W 120°58'714.3
2017-Nov-15 09:30N 34°18' W 121°07'5 9.9
2017-Nov-15 09:00N 34°20' W 121°13'510.1
2017-Nov-15 08:28N 34°22' W 121°18'612.3
2017-Nov-15 08:00N 34°26' W 121°24'919.0
2017-Nov-15 07:30N 34°35' W 121°26'714.7
2017-Nov-15 07:00N 34°39' W 121°34'916.2
2017-Nov-15 06:28N 34°43' W 121°43'716.2
2017-Nov-15 06:00N 34°46' W 121°52'815.7
2017-Nov-15 05:30N 34°49' W 122°00'815.8
2017-Nov-15 05:00N 34°52' W 122°09'917.8
2017-Nov-15 04:30N 34°56' W 122°19'1120.2
2017-Nov-15 03:59N 35°00' W 122°31'4220.1
2017-Nov-15 01:53N 35°17' W 123°18'  

Dump ship's entire track history